createdAt,value
2022-12-29T00:01:50.287Z,53.34
2022-12-29T00:05:59.527Z,53.69
2022-12-29T00:09:59.658Z,53.50
2022-12-29T00:14:12.522Z,53.12
2022-12-29T00:18:12.755Z,53.15
2022-12-29T00:22:30.860Z,53.39
2022-12-29T00:26:43.601Z,53.34
2022-12-29T00:30:56.428Z,53.17
2022-12-29T00:35:11.797Z,52.70
2022-12-29T00:39:34.909Z,53.30
2022-12-29T00:43:47.527Z,52.78
2022-12-29T00:47:47.652Z,53.18
2022-12-29T00:51:48.032Z,52.82
2022-12-29T00:55:50.882Z,53.59
2022-12-29T00:59:51.056Z,52.92
2022-12-29T01:03:51.084Z,52.55
2022-12-29T01:07:53.253Z,52.85
2022-12-29T01:11:56.253Z,52.38
2022-12-29T01:15:57.206Z,53.27
2022-12-29T01:19:57.344Z,53.09
2022-12-29T01:23:57.538Z,54.13
2022-12-29T01:28:00.243Z,54.24
2022-12-29T01:32:00.416Z,54.05
2022-12-29T01:36:04.576Z,54.09
2022-12-29T01:40:04.661Z,53.93
2022-12-29T01:44:57.998Z,54.36
2022-12-29T01:49:08.808Z,54.61
2022-12-29T01:53:15.439Z,55.18
2022-12-29T01:57:22.699Z,55.35
2022-12-29T02:01:26.191Z,55.56
2022-12-29T02:05:38.378Z,56.24
2022-12-29T02:09:38.646Z,56.28
2022-12-29T02:13:39.103Z,56.83
2022-12-29T02:18:06.908Z,56.86
2022-12-29T02:22:27.607Z,56.92
2022-12-29T02:26:50.198Z,57.08
2022-12-29T02:31:09.180Z,57.61
2022-12-29T02:35:20.260Z,57.94
2022-12-29T02:39:41.543Z,57.68
2022-12-29T02:43:51.608Z,57.49
2022-12-29T02:48:08.007Z,57.52
2022-12-29T02:52:17.262Z,56.97
2022-12-29T02:56:17.680Z,56.79
2022-12-29T03:00:21.415Z,57.05
2022-12-29T03:04:40.723Z,57.21
2022-12-29T03:08:52.390Z,57.51
2022-12-29T03:13:13.154Z,58.15
2022-12-29T03:17:25.999Z,57.70
2022-12-29T03:21:50.179Z,56.82
2022-12-29T03:25:57.755Z,57.20
2022-12-29T03:30:04.126Z,57.10
2022-12-29T03:34:05.600Z,57.08
2022-12-29T03:38:18.442Z,56.74
2022-12-29T03:42:27.628Z,56.93
2022-12-29T03:46:27.809Z,57.11
2022-12-29T03:50:28.501Z,57.01
2022-12-29T03:54:31.363Z,56.52
2022-12-29T03:58:32.055Z,55.80
2022-12-29T04:02:41.370Z,55.27
2022-12-29T04:06:44.044Z,54.94
2022-12-29T04:10:46.905Z,55.66
2022-12-29T04:14:49.543Z,55.49
2022-12-29T04:18:49.729Z,55.37
2022-12-29T04:22:49.966Z,55.19
2022-12-29T04:26:52.840Z,55.05
2022-12-29T04:31:02.638Z,54.59
2022-12-29T04:35:09.653Z,54.25
2022-12-29T04:39:10.852Z,54.62
2022-12-29T04:43:16.776Z,55.20
2022-12-29T04:47:47.828Z,55.52
2022-12-29T04:52:11.665Z,55.86
2022-12-29T04:56:13.284Z,55.36
2022-12-29T05:00:18.064Z,55.19
2022-12-29T05:04:19.744Z,55.47
2022-12-29T05:08:26.147Z,55.37
2022-12-29T05:12:28.432Z,55.28
2022-12-29T05:16:35.263Z,56.06
2022-12-29T05:20:35.538Z,56.38
2022-12-29T05:24:36.603Z,56.14
2022-12-29T05:28:36.943Z,55.58
2022-12-29T05:32:46.918Z,55.24
2022-12-29T05:36:47.117Z,54.92
2022-12-29T05:40:49.791Z,54.14
2022-12-29T05:45:13.849Z,53.89
2022-12-29T05:49:49.673Z,53.44
2022-12-29T05:54:05.545Z,53.10
2022-12-29T05:58:05.805Z,53.35
2022-12-29T06:02:06.191Z,52.63
2022-12-29T06:06:10.172Z,52.49
2022-12-29T06:10:12.044Z,52.17
2022-12-29T06:14:23.472Z,52.58
2022-12-29T06:18:23.797Z,51.76
2022-12-29T06:22:27.602Z,52.65
2022-12-29T06:26:27.781Z,53.28
2022-12-29T06:30:27.925Z,53.26
2022-12-29T06:34:28.294Z,52.71
2022-12-29T06:38:31.181Z,53.08
2022-12-29T06:42:32.741Z,52.54
2022-12-29T06:47:00.890Z,52.56
2022-12-29T06:51:01.160Z,52.91
2022-12-29T06:55:03.988Z,52.20
2022-12-29T06:59:04.328Z,52.09
2022-12-29T07:03:04.667Z,51.48
2022-12-29T07:07:04.997Z,51.73
2022-12-29T07:11:08.048Z,51.53
2022-12-29T07:15:09.682Z,51.71
2022-12-29T07:19:09.853Z,51.70
2022-12-29T07:23:10.192Z,50.97
2022-12-29T07:27:12.951Z,51.24
2022-12-29T07:31:19.544Z,50.32
2022-12-29T07:35:19.984Z,50.48
2022-12-29T07:39:20.450Z,50.56
2022-12-29T07:43:23.299Z,50.46
2022-12-29T07:47:43.476Z,50.10
2022-12-29T07:51:43.833Z,50.05
2022-12-29T07:55:45.235Z,49.42
2022-12-29T07:59:48.294Z,49.33
2022-12-29T08:03:52.608Z,48.62
2022-12-29T08:07:55.825Z,48.54
2022-12-29T08:11:57.397Z,48.26
2022-12-29T08:16:02.447Z,48.35
2022-12-29T08:20:03.093Z,47.97
2022-12-29T08:24:03.372Z,47.45
2022-12-29T08:28:03.527Z,47.38
2022-12-29T08:32:07.343Z,47.11
2022-12-29T08:36:10.407Z,46.92
2022-12-29T08:40:13.008Z,47.32
2022-12-29T08:44:13.431Z,47.34
2022-12-29T08:48:19.190Z,47.50
2022-12-29T08:52:19.421Z,47.60
2022-12-29T08:56:20.611Z,48.07
2022-12-29T09:00:26.564Z,48.25
2022-12-29T09:04:29.638Z,47.74
2022-12-29T09:08:30.198Z,46.92
2022-12-29T09:12:36.066Z,46.78
2022-12-29T09:16:38.574Z,46.50
2022-12-29T09:20:41.628Z,45.77
2022-12-29T09:24:41.884Z,45.01
2022-12-29T09:28:48.177Z,44.66
2022-12-29T09:32:53.414Z,43.74
2022-12-29T09:36:57.961Z,42.53
2022-12-29T09:41:04.886Z,40.37
2022-12-29T09:45:17.832Z,39.41
2022-12-29T09:49:27.866Z,38.94
2022-12-29T09:53:41.872Z,39.12
2022-12-29T09:57:51.498Z,38.01
2022-12-29T10:02:06.933Z,39.03
2022-12-29T10:06:21.030Z,38.62
2022-12-29T10:10:41.887Z,38.87
2022-12-29T10:15:02.102Z,37.52
2022-12-29T10:19:46.177Z,36.73
2022-12-29T10:23:53.926Z,37.53
2022-12-29T10:28:03.832Z,39.02
2022-12-29T10:32:09.478Z,40.99
2022-12-29T10:36:20.947Z,42.32
2022-12-29T10:40:30.631Z,43.00
2022-12-29T10:44:36.770Z,42.79
2022-12-29T10:48:38.951Z,42.63
2022-12-29T10:52:42.869Z,42.14
2022-12-29T10:56:48.121Z,42.33
2022-12-29T11:00:56.045Z,42.84
2022-12-29T11:05:05.945Z,43.04
2022-12-29T11:09:18.761Z,43.54
2022-12-29T11:13:22.554Z,42.74
2022-12-29T11:17:25.278Z,42.76
2022-12-29T11:21:41.194Z,42.35
2022-12-29T11:25:43.183Z,42.90
2022-12-29T11:29:46.242Z,43.37
2022-12-29T11:33:49.134Z,43.42
2022-12-29T11:37:49.402Z,43.36
2022-12-29T11:41:57.434Z,43.92
2022-12-29T11:45:57.845Z,43.16
2022-12-29T11:50:04.237Z,43.45
2022-12-29T11:54:08.081Z,43.93
2022-12-29T11:58:08.913Z,43.82
2022-12-29T12:02:40.564Z,43.35
2022-12-29T12:06:53.092Z,43.59
2022-12-29T12:11:02.364Z,42.88
2022-12-29T12:15:06.298Z,42.29
2022-12-29T12:19:36.348Z,42.13
2022-12-29T12:23:57.140Z,42.31
2022-12-29T12:28:04.199Z,42.43
2022-12-29T12:32:15.404Z,42.68
2022-12-29T12:36:35.888Z,42.18
2022-12-29T12:41:03.593Z,41.50
2022-12-29T12:45:31.351Z,42.89
2022-12-29T12:50:01.608Z,43.09
2022-12-29T12:54:23.102Z,42.32
2022-12-29T12:58:42.666Z,42.26
2022-12-29T13:03:05.809Z,43.30
2022-12-29T13:07:22.521Z,43.67
2022-12-29T13:11:36.981Z,43.54
2022-12-29T13:15:54.672Z,44.91
2022-12-29T13:20:06.337Z,44.43
2022-12-29T13:24:18.953Z,44.91
2022-12-29T13:28:29.605Z,44.11
2022-12-29T13:32:49.054Z,44.63
2022-12-29T13:36:54.945Z,44.70
2022-12-29T13:41:03.132Z,45.02
2022-12-29T13:45:08.611Z,45.40
2022-12-29T13:49:19.101Z,45.24
2022-12-29T13:53:32.021Z,45.39
2022-12-29T13:57:48.175Z,45.36
2022-12-29T14:01:58.546Z,45.61
2022-12-29T14:06:19.839Z,45.53
2022-12-29T14:10:34.463Z,45.80
2022-12-29T14:14:35.860Z,45.66
2022-12-29T14:18:38.203Z,45.31
2022-12-29T14:23:02.045Z,45.99
2022-12-29T14:27:02.492Z,45.65
2022-12-29T14:31:04.758Z,46.82
2022-12-29T14:35:44.541Z,46.14
2022-12-29T14:39:48.812Z,46.22
2022-12-29T14:44:01.062Z,47.10
2022-12-29T14:48:01.491Z,47.26
2022-12-29T14:52:17.638Z,47.78
2022-12-29T14:56:23.264Z,47.82
2022-12-29T15:00:28.971Z,47.85
2022-12-29T15:04:35.579Z,48.54
2022-12-29T15:08:43.298Z,48.48
2022-12-29T15:12:55.377Z,48.52
2022-12-29T15:16:55.555Z,48.57
2022-12-29T15:21:00.446Z,48.40
2022-12-29T15:25:01.894Z,49.24
2022-12-29T15:29:04.711Z,48.73
2022-12-29T15:33:05.759Z,49.38
2022-12-29T15:37:11.762Z,48.86
2022-12-29T15:41:30.335Z,49.34
2022-12-29T15:45:38.357Z,49.21
2022-12-29T15:49:39.785Z,49.32
2022-12-29T15:53:40.006Z,49.30
2022-12-29T15:57:46.803Z,49.48
2022-12-29T16:01:49.675Z,49.27
2022-12-29T16:05:57.509Z,49.81
2022-12-29T16:10:02.476Z,49.34
2022-12-29T16:14:03.337Z,49.41
2022-12-29T16:18:06.335Z,49.66
2022-12-29T16:22:14.485Z,49.58
2022-12-29T16:26:20.819Z,50.26
2022-12-29T16:30:32.846Z,50.84
2022-12-29T16:34:46.781Z,50.77
2022-12-29T16:38:47.480Z,51.15
2022-12-29T16:42:52.538Z,51.34
2022-12-29T16:47:22.028Z,51.33
2022-12-29T16:51:34.753Z,51.24
2022-12-29T16:55:35.790Z,51.36
2022-12-29T16:59:40.932Z,50.96
2022-12-29T17:03:46.124Z,51.25
2022-12-29T17:07:52.105Z,51.51
2022-12-29T17:12:05.316Z,52.10
2022-12-29T17:16:14.396Z,51.48
2022-12-29T17:20:22.201Z,51.06
2022-12-29T17:24:25.287Z,50.99
2022-12-29T17:28:29.814Z,51.77
2022-12-29T17:32:30.117Z,52.34
2022-12-29T17:36:30.388Z,52.25
2022-12-29T17:40:36.653Z,52.29
2022-12-29T17:44:37.099Z,52.15
2022-12-29T17:48:37.483Z,51.69
2022-12-29T17:52:37.746Z,51.63
2022-12-29T17:56:40.418Z,51.19
2022-12-29T18:00:40.641Z,51.02
2022-12-29T18:04:41.594Z,51.43
2022-12-29T18:08:44.920Z,50.34
2022-12-29T18:12:51.339Z,50.33
2022-12-29T18:16:51.459Z,50.75
2022-12-29T18:20:55.194Z,51.96
2022-12-29T18:24:55.403Z,55.81
2022-12-29T18:28:59.407Z,58.18
2022-12-29T18:32:59.601Z,59.22
2022-12-29T18:37:01.788Z,59.61
2022-12-29T18:41:02.732Z,60.03
2022-12-29T18:45:05.555Z,60.32
2022-12-29T18:49:05.710Z,61.31
2022-12-29T18:53:05.865Z,61.74
2022-12-29T18:57:06.715Z,62.18
2022-12-29T19:01:17.819Z,62.48
2022-12-29T19:05:24.783Z,62.02
2022-12-29T19:09:26.657Z,61.79
2022-12-29T19:13:29.492Z,61.59
2022-12-29T19:17:32.193Z,61.62
2022-12-29T19:21:33.755Z,61.97
2022-12-29T19:25:34.867Z,62.61
2022-12-29T19:29:35.179Z,62.12
2022-12-29T19:33:38.795Z,62.64
2022-12-29T19:37:40.201Z,62.53
2022-12-29T19:41:41.340Z,62.60
2022-12-29T19:45:43.208Z,62.38
2022-12-29T19:49:46.186Z,62.06
2022-12-29T19:53:46.799Z,62.42
2022-12-29T19:57:49.399Z,63.00
2022-12-29T20:01:49.730Z,62.86
2022-12-29T20:05:54.000Z,62.81
2022-12-29T20:09:54.301Z,62.42
2022-12-29T20:13:54.875Z,62.30
2022-12-29T20:18:13.250Z,62.33
2022-12-29T20:22:17.398Z,62.42
2022-12-29T20:26:21.003Z,62.58
2022-12-29T20:30:22.047Z,63.49
2022-12-29T20:34:23.263Z,62.96
2022-12-29T20:38:26.780Z,62.46
2022-12-29T20:42:27.065Z,62.34
2022-12-29T20:46:34.072Z,62.17
2022-12-29T20:50:36.764Z,62.78
2022-12-29T20:54:40.130Z,62.59
2022-12-29T20:59:00.274Z,62.71
2022-12-29T21:03:01.720Z,63.40
2022-12-29T21:07:02.086Z,62.83
2022-12-29T21:11:06.878Z,62.77
2022-12-29T21:15:09.416Z,62.75
2022-12-29T21:19:10.045Z,62.68
2022-12-29T21:23:10.748Z,63.48
2022-12-29T21:27:13.714Z,63.60
2022-12-29T21:31:21.791Z,64.11
2022-12-29T21:35:22.006Z,63.81
2022-12-29T21:39:22.143Z,63.52
2022-12-29T21:43:24.777Z,64.17
2022-12-29T21:47:25.767Z,63.61
2022-12-29T21:51:38.319Z,63.57
2022-12-29T21:55:38.451Z,64.04
2022-12-29T21:59:53.862Z,64.17
2022-12-29T22:04:06.481Z,64.77
2022-12-29T22:08:20.774Z,64.57
2022-12-29T22:12:33.400Z,64.26
2022-12-29T22:16:36.148Z,64.51
2022-12-29T22:20:38.947Z,63.25
2022-12-29T22:24:39.485Z,63.67
2022-12-29T22:28:40.689Z,63.75
2022-12-29T22:32:43.815Z,63.85
2022-12-29T22:36:43.939Z,64.97
2022-12-29T22:40:44.176Z,64.88
2022-12-29T22:44:44.590Z,64.05
2022-12-29T22:48:47.439Z,64.30
2022-12-29T22:52:47.626Z,64.51
2022-12-29T22:56:47.748Z,64.07
2022-12-29T23:00:47.910Z,64.43
2022-12-29T23:05:06.328Z,65.19
2022-12-29T23:09:08.931Z,65.90
2022-12-29T23:13:09.062Z,66.07
2022-12-29T23:17:09.233Z,65.55
2022-12-29T23:21:12.486Z,66.03
2022-12-29T23:25:13.175Z,65.60
2022-12-29T23:29:18.056Z,65.03
2022-12-29T23:33:18.177Z,64.95
2022-12-29T23:37:20.970Z,64.32
2022-12-29T23:41:21.478Z,63.68
2022-12-29T23:45:21.573Z,63.83
2022-12-29T23:49:22.032Z,63.22
2022-12-29T23:53:24.666Z,63.07
2022-12-29T23:57:24.758Z,63.51
